• Join FlightAware (Why Join?)
  • Login
  • US Flag 
04:34PM EDT


 

Airport Tracker/Info


-or-


 

Live Flight TrackerFlight Track Log ✈ AAL963 ✈ 14-Jun-2013 ✈ KDFW - SBGR / GRU

Flight Track Log - Related Links

Times and Time Zones

All times are in EDT time to prevent confusion due to time zone crossing. See the AAL963 flight status page for this flight to view local times or setup timezone preferences in your user account.

Time Position Orientation Groundspeed Altitude Reporting Facility
EDT Latitude Longitude Course Direction KTS MPH feet Rate Location/Type
09:14PM 32.8380 -97.0200 164° South 204 235 2,200  Level FlightAware
09:15PM 32.8050 -97.0100 166° South 234 269 2,700 1,140 Climbing FlightAware
09:15PM 32.7770 -97.0020 166° South 252 290 3,300 1,380 Climbing FlightAware
09:15PM 32.7610 -96.9970 165° South 266 306 3,600 2,040 Climbing FlightAware
09:16PM 32.7260 -96.9850 164° South 266 306 4,800 2,100 Climbing FlightAware
09:16PM 32.6920 -96.9710 161° South 272 313 5,700 2,040 Climbing FlightAware
09:17PM 32.6640 -96.9600 162° South 273 314 6,600 2,160 Climbing FlightAware
09:17PM 32.6250 -96.9450 162° South 277 319 7,700 2,220 Climbing FlightAware
09:18PM 32.5930 -96.9320 161° South 272 313 8,800 2,160 Climbing FlightAware
09:18PM 32.5590 -96.9190 162° South 275 316 9,700 1,920 Climbing FlightAware
09:19PM 32.5080 -96.9000 163° South 280 322 11,100 1,440 Climbing FlightAware
09:20PM 32.4470 -96.8770 162° South 316 364 11,800 600 Climbing FlightAware
09:20PM 32.4240 -96.8690 164° South 328 377 12,000 1,380 Climbing FlightAware
09:21PM 32.3270 -96.8320 162° South 351 404 13,700 2,280 Climbing FlightAware
09:22PM 32.2610 -96.8070 162° South 356 410 15,100 1,740 Climbing FlightAware
09:22PM 32.1890 -96.7790 162° South 369 425 16,300 1,620 Climbing FlightAware
09:23PM 32.1187 -96.7523 162° South 374 430 17,500 1,740 Climbing FlightAware ADS-B
09:24PM 32.0565 -96.7286 162° South 379 436 18,600 1,680 Climbing FlightAware ADS-B
09:24PM 32.0053 -96.7091 162° South 387 445 19,400 1,440 Climbing FlightAware ADS-B
09:25PM 31.9517 -96.6888 162° South 396 456 20,100 1,200 Climbing FlightAware ADS-B
09:25PM 31.8979 -96.6684 162° South 399 459 20,700 1,200 Climbing FlightAware ADS-B
09:26PM 31.8198 -96.6373 161° South 412 474 21,600 1,260 Climbing FlightAware ADS-B
09:27PM 31.7462 -96.6066 160° South 423 487 22,500 1,260 Climbing FlightAware ADS-B
09:27PM 31.6450 -96.5653 160° South 433 498 23,600 1,200 Climbing FlightAware ADS-B
09:28PM 31.5790 -96.5384 161° South 443 510 24,300 1,080 Climbing FlightAware ADS-B
09:29PM 31.4566 -96.4901 162° South 453 521 25,400 1,080 Climbing FlightAware ADS-B
09:30PM 31.3961 -96.4679 163° South 457 526 26,000 960 Climbing FlightAware ADS-B
09:31PM 31.2451 -96.3899 150° Southeast 471 542 27,200 900 Climbing FlightAware ADS-B
09:31PM 31.1893 -96.3521 150° Southeast 475 547 27,700 1,020 Climbing FlightAware ADS-B
09:32PM 31.1574 -96.3255 144° Southeast 477 549 28,000 900 Climbing FlightAware ADS-B
09:32PM 31.1430 -96.3103 138° Southeast 478 550 28,100 840 Climbing FlightAware ADS-B
09:32PM 31.0909 -96.2344 127° Southeast 482 555 28,700 780 Climbing FlightAware ADS-B
09:33PM 31.0117 -96.1070 126° Southeast 491 565 29,400 660 Climbing FlightAware ADS-B
09:34PM 30.9685 -96.0376 126° Southeast 495 570 29,800 720 Climbing FlightAware ADS-B
09:35PM 30.8435 -95.8385 126° Southeast 504 580 31,000 780 Climbing FlightAware ADS-B
09:36PM 30.8014 -95.7715 126° Southeast 504 580 31,500 1,020 Climbing FlightAware ADS-B
09:37PM 30.7182 -95.6397 126° Southeast 498 573 32,600 1,020 Climbing FlightAware ADS-B
09:38PM 30.6774 -95.5750 126° Southeast 498 573 33,100 720 Climbing FlightAware ADS-B
09:39PM 30.5512 -95.3758 126° Southeast 500 575 34,100 660 Climbing FlightAware ADS-B
09:40PM 30.4687 -95.2462 126° Southeast 499 574 34,800 600 Climbing FlightAware ADS-B
09:41PM 30.4274 -95.1814 126° Southeast 501 577 35,000 180 Climbing FlightAware ADS-B
09:41PM 30.3827 -95.1114 126° Southeast 501 577 35,000  Level FlightAware ADS-B
09:42PM 30.3413 -95.0467 127° Southeast 500 575 35,000  Level FlightAware ADS-B
09:42PM 30.2985 -94.9800 127° Southeast 500 575 35,000  Level FlightAware ADS-B
09:43PM 30.2150 -94.8501 127° Southeast 501 577 35,000  Level FlightAware ADS-B
09:44PM 30.1307 -94.7195 127° Southeast 503 579 35,000  Level FlightAware ADS-B
09:46PM 30.0041 -94.5239 127° Southeast 504 580 35,000  Level FlightAware ADS-B
09:47PM 29.9185 -94.3923 127° Southeast 504 580 35,000  Level FlightAware ADS-B
09:47PM 29.8754 -94.3262 127° Southeast 504 580 35,000  Level FlightAware ADS-B
09:48PM 29.8329 -94.2611 127° Southeast 503 579 35,000  Level FlightAware ADS-B
09:49PM 29.7158 -94.0824 127° Southeast 502 578 35,000  Level FlightAware ADS-B
09:49PM 29.6938 -94.0527 130° Southeast 502 578 35,000  Level FlightAware ADS-B
09:50PM 29.6612 -94.0147 135° Southeast 504 580 35,000  Level FlightAware ADS-B
09:51PM 29.5470 -93.9172 144° Southeast 505 581 35,000  Level FlightAware ADS-B
09:52PM 29.4234 -93.8138 144° Southeast 505 581 35,000  Level FlightAware ADS-B
09:52PM 29.3640 -93.7634 144° Southeast 506 582 35,000  Level FlightAware ADS-B
09:53PM 29.3067 -93.7145 143° Southeast 506 582 35,000  Level FlightAware ADS-B
09:53PM 29.2490 -93.6653 143° Southeast 507 583 35,000  Level FlightAware ADS-B
09:54PM 29.1915 -93.6162 143° Southeast 507 583 35,000  Level FlightAware ADS-B
09:54PM 29.1331 -93.5666 143° Southeast 508 585 35,000  Level FlightAware ADS-B
09:55PM 29.0758 -93.5180 143° Southeast 510 587 35,000  Level FlightAware ADS-B
09:55PM 29.0183 -93.4693 143° Southeast 510 587 35,000  Level FlightAware ADS-B
09:56PM 28.9608 -93.4209 144° Southeast 510 587 35,000  Level FlightAware ADS-B
09:56PM 28.9016 -93.3712 144° Southeast 510 587 35,000  Level FlightAware ADS-B
09:57PM 28.8158 -93.2975 144° Southeast 510 587 35,000  Level Houston Center
09:58PM 28.7028 -93.2036 144° Southeast 505 581 35,000  Level Houston Center
09:59PM 28.5889 -93.1075 143° Southeast 509 586 35,000 -60 Level Houston Center
10:00PM 28.4511 -92.9933 144° Southeast 511 588 34,900  Descending Houston Center
10:01PM 28.3361 -92.8978 144° Southeast 512 589 35,000  Climbing Houston Center
10:02PM 28.2208 -92.8028 144° Southeast 512 589 35,000  Level Houston Center
10:03PM 28.1067 -92.7061 143° Southeast 513 590 35,000  Level Houston Center
10:04PM 27.9922 -92.6117 144° Southeast 511 588 35,000 -420 Level Houston Center
10:05PM 27.8772 -92.5169 144° Southeast 511 588 34,200 -840 Descending Houston Center
10:06PM 27.7614 -92.4253 145° Southeast 509 586 33,300 -600 Descending Houston Center
10:07PM 27.6469 -92.3322 144° Southeast 507 583 33,000 -180 Descending Houston Center
10:09PM 27.5339 -92.2392 144° Southeast 505 581 33,000  Level Houston Center
10:10PM 27.4200 -92.1478 145° Southeast 503 579 33,000  Level Houston Center
10:11PM 27.3069 -92.0561 144° Southeast 502 578 33,000  Level Houston Center
10:12PM 27.1694 -91.9444 144° Southeast 506 582 33,000  Level Houston Center
10:14PM 26.9644 -91.7712 144° Southeast  Level FlightAware Approximate
10:21PM 26.2125 -91.1749 145° Southeast  Level FlightAware Approximate
10:22PM 26.1049 -91.0903 145° Southeast  Level FlightAware Approximate
10:23PM 25.9973 -91.0058 145° Southeast  Level FlightAware Approximate
10:24PM 25.8897 -90.9215 145° Southeast  Level FlightAware Approximate
10:25PM 25.7820 -90.8373 145° Southeast  Level FlightAware Approximate
10:26PM 25.6742 -90.7533 145° Southeast  Level FlightAware Approximate
10:27PM 25.5664 -90.6695 145° Southeast  Level FlightAware Approximate
10:28PM 25.4585 -90.5858 145° Southeast  Level FlightAware Approximate
10:29PM 25.3506 -90.5023 145° Southeast  Level FlightAware Approximate
10:30PM 25.2427 -90.4189 145° Southeast  Level FlightAware Approximate
10:31PM 25.1347 -90.3356 145° Southeast  Level FlightAware Approximate
10:32PM 25.0266 -90.2525 145° Southeast  Level FlightAware Approximate
10:33PM 24.9185 -90.1695 145° Southeast  Level FlightAware Approximate
10:34PM 24.8104 -90.0867 145° Southeast  Level FlightAware Approximate
10:35PM 24.7022 -90.0041 145° Southeast  Level FlightAware Approximate
10:36PM 24.5940 -89.9215 145° Southeast  Level FlightAware Approximate
10:37PM 24.4872 -89.8372 138° Southeast  Level FlightAware Approximate
10:37PM 24.3130 -89.7100 138° Southeast 496 571 33,000  Level FlightAware
10:38PM 24.2600 -89.6690 145° Southeast 496 571 33,000  Level FlightAware
10:39PM 24.1630 -89.5970 146° Southeast 494 568 33,000  Level FlightAware
10:39PM 24.1040 -89.5510 145° Southeast 494 568 33,000  Level FlightAware
10:40PM 24.0050 -89.4780 146° Southeast 493 567 33,000  Level FlightAware
10:41PM 23.9260 -89.4180 145° Southeast 492 566 33,000  Level FlightAware
10:41PM 23.8490 -89.3490 141° Southeast 494 568 33,000  Level FlightAware
10:42PM 23.7650 -89.2710 140° Southeast 495 570 33,000  Level FlightAware
10:43PM 23.7070 -89.2170 140° Southeast 495 570 33,000  Level FlightAware
10:43PM 23.6220 -89.1370 139° Southeast 494 568 33,000  Level FlightAware
10:44PM 23.5550 -89.0750 140° Southeast 493 567 33,000  Level FlightAware
10:45PM 23.4370 -88.9650 139° Southeast 491 565 33,000  Level FlightAware
10:46PM 23.3650 -88.8980 139° Southeast 491 565 33,000  Level FlightAware
10:47PM 23.3100 -88.8470 140° Southeast 491 565 33,000  Level FlightAware
10:47PM 23.2380 -88.7800 139° Southeast 491 565 33,000  Level FlightAware
10:48PM 23.1610 -88.7090 140° Southeast 490 564 33,000  Level FlightAware
10:49PM 23.0900 -88.6430 139° Southeast 490 564 33,000  Level FlightAware
10:49PM 23.0220 -88.5800 140° Southeast 490 564 33,000 480 Level FlightAware
10:50PM 22.9430 -88.5080 140° Southeast 488 562 33,700 960 Climbing FlightAware
10:51PM 22.8720 -88.4430 140° Southeast 485 558 34,400 840 Climbing FlightAware
10:52PM 22.7890 -88.3660 139° Southeast 482 555 35,000 360 Climbing FlightAware
10:52PM 22.7210 -88.3040 140° Southeast 480 552 35,000  Level FlightAware
10:53PM 22.6510 -88.2400 140° Southeast 480 552 35,000  Level FlightAware
10:54PM 22.5830 -88.1770 139° Southeast 481 554 35,000  Level FlightAware
10:54PM 22.5140 -88.1140 140° Southeast 478 550 35,000  Level FlightAware
10:55PM 22.4330 -88.0400 140° Southeast 479 551 35,000  Level FlightAware
10:56PM 22.3490 -87.9640 140° Southeast 479 551 35,000  Level FlightAware
10:57PM 22.2770 -87.8990 140° Southeast 480 552 35,000  Level FlightAware
10:57PM 22.2010 -87.8290 140° Southeast 480 552 35,000  Level FlightAware
10:58PM 22.1390 -87.7730 140° Southeast 481 554 35,000  Level FlightAware
10:59PM 22.0660 -87.7070 140° Southeast 482 555 35,000  Level FlightAware
10:59PM 21.9810 -87.6300 140° Southeast 484 557 35,000  Level FlightAware
11:00PM 21.9110 -87.5670 140° Southeast 484 557 35,000  Level FlightAware
11:01PM 21.8420 -87.5050 140° Southeast 485 558 35,000  Level FlightAware
11:02PM 21.7730 -87.4430 140° Southeast 486 559 35,000  Level FlightAware
11:02PM 21.6520 -87.3340 140° Southeast 487 560 35,000  Level FlightAware
11:03PM 21.5770 -87.2670 140° Southeast 488 562 35,000  Level FlightAware
11:04PM 21.5040 -87.2020 140° Southeast 490 564 35,000  Level FlightAware
11:04PM 21.4330 -87.1380 140° Southeast 490 564 35,000  Level FlightAware
11:05PM 21.3570 -87.0700 140° Southeast 489 563 35,000  Level FlightAware
11:06PM 21.2830 -87.0040 140° Southeast 489 563 35,000  Level FlightAware
11:07PM 21.2070 -86.9360 140° Southeast 489 563 35,000  Level FlightAware
11:07PM 21.1350 -86.8720 140° Southeast 489 563 35,000  Level FlightAware
11:08PM 21.0670 -86.8120 141° Southeast 488 562 35,000  Level FlightAware
11:09PM 20.9880 -86.7420 140° Southeast 489 563 35,000  Level FlightAware
11:09PM 20.9190 -86.6800 140° Southeast 488 562 35,000  Level FlightAware
11:10PM 20.8510 -86.6200 140° Southeast 488 562 35,000  Level FlightAware
11:11PM 20.7200 -86.5040 140° Southeast 489 563 35,000  Level FlightAware
11:12PM 20.6430 -86.4360 140° Southeast 490 564 35,000  Level FlightAware
11:13PM 20.5760 -86.3770 140° Southeast 492 566 35,000  Level FlightAware
11:14PM 20.4320 -86.2490 140° Southeast 492 566 35,000  Level FlightAware
11:14PM 20.4270 -86.2460 151° Southeast 35,000  Level FlightAware
11:16PM 20.1950 -86.0430 141° Southeast 491 565 35,000  Level FlightAware
11:17PM 20.1200 -85.9770 140° Southeast 490 564 35,000  Level FlightAware
11:18PM 20.0490 -85.9150 141° Southeast 490 564 35,000  Level FlightAware
11:18PM 19.9800 -85.8530 140° Southeast 492 566 35,000  Level FlightAware
11:19PM 19.9010 -85.7770 138° Southeast 494 568 35,000  Level FlightAware
11:20PM 19.8300 -85.7100 138° Southeast 495 570 35,000  Level FlightAware
11:20PM 19.7570 -85.6410 138° Southeast 495 570 35,000  Level FlightAware
11:21PM 19.6870 -85.5760 139° Southeast 496 571 35,000  Level FlightAware
11:22PM 19.6390 -85.5300 138° Southeast 496 571 35,000  Level FlightAware
11:22PM 19.5620 -85.4570 138° Southeast 496 571 35,000  Level FlightAware
11:23PM 19.4740 -85.3760 139° Southeast 495 570 35,000  Level FlightAware
11:24PM 19.4000 -85.3070 139° Southeast 497 572 35,000  Level FlightAware
11:25PM 19.3290 -85.2400 138° Southeast 497 572 35,000  Level FlightAware
11:25PM 19.2620 -85.1770 138° Southeast 498 573 35,000  Level FlightAware
11:26PM 19.2090 -85.1270 138° Southeast 498 573 35,000  Level FlightAware
11:27PM 19.1380 -85.0590 138° Southeast 498 573 35,000  Level FlightAware
11:27PM 19.0840 -85.0080 138° Southeast 498 573 35,000  Level FlightAware
11:28PM 19.0140 -84.9410 138° Southeast 498 573 35,000  Level FlightAware
11:29PM 18.9620 -84.8910 138° Southeast 498 573 35,000  Level FlightAware
11:29PM 18.9050 -84.8370 138° Southeast 498 573 35,000  Level FlightAware
11:30PM 18.8340 -84.7690 138° Southeast 498 573 35,000  Level FlightAware
11:31PM 18.7800 -84.7180 138° Southeast 498 573 35,000  Level FlightAware
11:32PM 18.7090 -84.6500 138° Southeast 498 573 35,000  Level FlightAware
11:32PM 18.6550 -84.5990 138° Southeast 498 573 35,000  Level FlightAware
11:33PM 18.6020 -84.5490 138° Southeast 498 573 35,000  Level FlightAware
11:34PM 18.5340 -84.4840 138° Southeast 498 573 35,000  Level FlightAware
11:34PM 18.4640 -84.4180 138° Southeast 498 573 35,000  Level FlightAware
11:37PM 18.2602 -84.2184 137° Southeast  Level Estimated
11:38PM 18.1631 -84.1236 137° Southeast  Level Estimated
11:39PM 18.0660 -84.0288 137° Southeast  Level Estimated
11:40PM 17.9688 -83.9341 137° Southeast  Level Estimated
11:41PM 17.8715 -83.8396 137° Southeast  Level Estimated
11:42PM 17.7742 -83.7451 137° Southeast  Level Estimated
11:43PM 17.6769 -83.6508 137° Southeast  Level Estimated
11:44PM 17.5795 -83.5565 137° Southeast  Level Estimated
11:45PM 17.4821 -83.4624 137° Southeast  Level Estimated
11:46PM 17.3846 -83.3683 137° Southeast  Level Estimated
11:47PM 17.2871 -83.2744 137° Southeast  Level Estimated
11:48PM 17.1895 -83.1805 137° Southeast  Level Estimated
11:49PM 17.0919 -83.0868 137° Southeast  Level Estimated
11:50PM 16.9943 -82.9931 137° Southeast  Level Estimated
11:51PM 16.8966 -82.8996 137° Southeast  Level Estimated
11:52PM 16.7989 -82.8061 138° Southeast  Level Estimated
11:53PM 16.7011 -82.7127 138° Southeast  Level Estimated
11:54PM 16.6033 -82.6195 138° Southeast  Level Estimated
11:55PM 16.5054 -82.5263 138° Southeast  Level Estimated
11:56PM 16.4075 -82.4332 138° Southeast  Level Estimated
11:57PM 16.3096 -82.3403 138° Southeast  Level Estimated
11:58PM 16.2116 -82.2474 138° Southeast  Level Estimated
11:59PM 16.1136 -82.1546 138° Southeast  Level Estimated
12:00AM 16.0155 -82.0619 138° Southeast  Level Estimated
12:01AM 15.9174 -81.9693 138° Southeast  Level Estimated
12:02AM 15.8193 -81.8767 138° Southeast  Level Estimated
12:03AM 15.7211 -81.7843 138° Southeast  Level Estimated
12:04AM 15.6229 -81.6920 138° Southeast  Level Estimated
12:05AM 15.5246 -81.5997 138° Southeast  Level Estimated
12:06AM 15.4264 -81.5075 138° Southeast  Level Estimated
12:07AM 15.3280 -81.4155 138° Southeast  Level Estimated
12:08AM 15.2297 -81.3235 138° Southeast  Level Estimated
12:09AM 15.1313 -81.2316 138° Southeast  Level Estimated
12:10AM 15.0328 -81.1397 138° Southeast  Level Estimated
12:11AM 14.9343 -81.0480 138° Southeast  Level Estimated
12:12AM 14.8358 -80.9564 138° Southeast  Level Estimated
12:13AM 14.7373 -80.8648 138° Southeast  Level Estimated
12:14AM 14.6387 -80.7733 138° Southeast  Level Estimated
12:15AM 14.5400 -80.6819 138° Southeast  Level Estimated
12:16AM 14.4414 -80.5906 138° Southeast  Level Estimated
12:17AM 14.3427 -80.4993 138° Southeast  Level Estimated
12:18AM 14.2440 -80.4082 138° Southeast  Level Estimated
12:19AM 14.1452 -80.3171 138° Southeast  Level Estimated
12:20AM 14.0464 -80.2261 138° Southeast  Level Estimated
12:21AM 13.9476 -80.1352 138° Southeast  Level Estimated
12:22AM 13.8487 -80.0443 138° Southeast  Level Estimated
12:23AM 13.7498 -79.9536 138° Southeast  Level Estimated
12:24AM 13.6509 -79.8629 138° Southeast  Level Estimated
12:25AM 13.5519 -79.7722 138° Southeast  Level Estimated
12:26AM 13.4529 -79.6817 138° Southeast  Level Estimated
12:27AM 13.3539 -79.5912 138° Southeast  Level Estimated
12:28AM 13.2548 -79.5008 138° Southeast  Level Estimated
12:29AM 13.1557 -79.4105 138° Southeast  Level Estimated
12:30AM 13.0566 -79.3203 138° Southeast  Level Estimated
12:31AM 12.9574 -79.2301 138° Southeast  Level Estimated
12:32AM 12.8582 -79.1400 138° Southeast  Level Estimated
12:33AM 12.7590 -79.0500 138° Southeast  Level Estimated
12:34AM 12.6598 -78.9600 139° Southeast  Level Estimated
12:35AM 12.5605 -78.8701 139° Southeast  Level Estimated
12:36AM 12.4612 -78.7803 139° Southeast  Level Estimated
12:37AM 12.3618 -78.6906 139° Southeast  Level Estimated
12:38AM 12.2625 -78.6009 139° Southeast  Level Estimated
12:39AM 12.1631 -78.5113 139° Southeast  Level Estimated
12:40AM 12.0637 -78.4217 139° Southeast  Level Estimated
12:41AM 11.9642 -78.3322 139° Southeast  Level Estimated
12:42AM 11.8647 -78.2428 139° Southeast  Level Estimated
12:42AM 11.5460 -77.8800 139° Southeast 467 537 37,000  Level FlightAware
12:43AM 11.7652 -78.1535 139° Southeast  Level Estimated
12:43AM 11.4640 -77.8520 161° South 461 531 37,000  Level FlightAware
12:44AM 11.3650 -77.8380 172° South 467 537 37,000  Level FlightAware
12:45AM 11.2790 -77.8260 172° South 458 527 37,000  Level FlightAware
12:46AM 11.1330 -77.8050 172° South 456 525 37,000  Level FlightAware
12:47AM 11.0100 -77.7860 171° South 456 525 37,000  Level FlightAware
12:47AM 10.9440 -77.7750 171° South 456 525 37,000  Level FlightAware
12:48AM 10.8260 -77.7560 171° South 457 526 37,000  Level FlightAware
12:49AM 10.7150 -77.7400 172° South 456 525 37,000  Level FlightAware
12:50AM 10.6270 -77.7260 171° South 455 524 37,000  Level FlightAware
12:50AM 10.5360 -77.7110 171° South 455 524 37,000  Level FlightAware
12:51AM 10.4560 -77.7010 173° South 454 522 37,000  Level FlightAware
12:52AM 10.3640 -77.6910 174° South 449 517 37,000  Level FlightAware
12:53AM 10.2700 -77.6810 174° South 449 517 37,000  Level FlightAware
12:53AM 10.1810 -77.6710 174° South 450 518 37,000  Level FlightAware
12:54AM 10.1020 -77.6620 174° South 449 517 37,000  Level FlightAware
12:55AM 10.0180 -77.6530 174° South 449 517 37,000  Level FlightAware
12:55AM 9.9180 -77.6390 172° South 446 513 37,000  Level FlightAware
12:56AM 9.8320 -77.6020 157° South 439 505 37,000  Level FlightAware
12:57AM 9.7660 -77.5510 143° Southeast 441 507 37,000  Level FlightAware
12:57AM 9.7050 -77.4930 137° Southeast 442 509 37,000  Level FlightAware
12:58AM 9.6480 -77.4180 128° Southeast 447 514 37,000  Level FlightAware
12:59AM 9.6060 -77.3550 124° Southeast 447 514 37,000  Level FlightAware
01:00AM 9.5460 -77.2590 122° Southeast 449 517 37,000  Level FlightAware
01:00AM 9.4900 -77.1710 123° Southeast 450 518 37,000  Level FlightAware
01:01AM 9.4330 -77.0780 122° Southeast 450 518 37,000  Level FlightAware
01:02AM 9.3990 -77.0240 123° Southeast 450 518 37,000  Level FlightAware
01:03AM 9.3530 -76.9490 122° Southeast 450 518 37,000  Level FlightAware
01:04AM 9.3160 -76.8880 122° Southeast 450 518 37,000  Level FlightAware
01:04AM 9.2820 -76.8340 123° Southeast 450 518 37,000  Level FlightAware
01:05AM 9.2360 -76.7590 122° Southeast 450 518 37,000  Level FlightAware
01:06AM 9.2020 -76.7040 122° Southeast 450 518 37,000  Level FlightAware
01:08AM 9.0073 -76.5287 138° Southeast  Level Estimated
01:09AM 8.9083 -76.4396 138° Southeast  Level Estimated
01:10AM 8.8092 -76.3505 138° Southeast  Level Estimated
01:11AM 8.7101 -76.2615 138° Southeast  Level Estimated
01:12AM 8.6110 -76.1726 138° Southeast  Level Estimated
01:13AM 8.5119 -76.0837 138° Southeast  Level Estimated
01:14AM 8.4128 -75.9949 138° Southeast  Level Estimated
01:15AM 8.3136 -75.9061 138° Southeast  Level Estimated
01:16AM 8.2144 -75.8173 138° Southeast  Level Estimated
01:17AM 8.1152 -75.7286 138° Southeast  Level Estimated
01:18AM 8.0160 -75.6399 138° Southeast  Level Estimated
01:19AM 7.9168 -75.5513 139° Southeast  Level Estimated
01:20AM 7.8176 -75.4627 139° Southeast  Level Estimated
01:21AM 7.7183 -75.3741 139° Southeast  Level Estimated
01:22AM 7.6190 -75.2856 139° Southeast  Level Estimated
01:23AM 7.5197 -75.1972 139° Southeast  Level Estimated
01:24AM 7.4204 -75.1088 139° Southeast  Level Estimated
01:25AM 7.3210 -75.0204 139° Southeast  Level Estimated
01:26AM 7.2217 -74.9320 139° Southeast  Level Estimated
01:27AM 7.1223 -74.8437 139° Southeast  Level Estimated
01:28AM 7.0229 -74.7555 139° Southeast  Level Estimated
01:29AM 6.9235 -74.6673 139° Southeast  Level Estimated
01:30AM 6.8240 -74.5791 139° Southeast  Level Estimated
01:31AM 6.7246 -74.4909 139° Southeast  Level Estimated
01:32AM 6.6252 -74.4028 139° Southeast  Level Estimated
01:33AM 6.5257 -74.3147 139° Southeast  Level Estimated
01:34AM 6.4262 -74.2267 139° Southeast  Level Estimated
01:35AM 6.3267 -74.1386 139° Southeast  Level Estimated
01:35AM 5.6440 -74.9930 139° Southeast 486 559 37,000  Level FlightAware
01:36AM 5.5530 -74.9610 161° South 486 559 37,000  Level FlightAware
01:37AM 5.4620 -74.9300 161° South 485 558 37,000  Level FlightAware
01:37AM 5.3680 -74.8980 161° South 482 555 37,000  Level FlightAware
01:38AM 5.2930 -74.8480 146° Southeast 478 550 37,000  Level FlightAware
01:39AM 5.2320 -74.7790 132° Southeast 477 549 37,000  Level FlightAware
01:39AM 5.1680 -74.7050 131° Southeast 478 550 37,000  Level FlightAware
01:40AM 5.1170 -74.6460 131° Southeast 479 551 37,000  Level FlightAware
01:41AM 5.0720 -74.5940 131° Southeast 481 554 37,000  Level FlightAware
01:41AM 5.0040 -74.5170 132° Southeast 481 554 37,000  Level FlightAware
01:42AM 4.9460 -74.4500 131° Southeast 482 555 37,000  Level FlightAware
01:43AM 4.8800 -74.3750 131° Southeast 482 555 37,000  Level FlightAware
01:43AM 4.8230 -74.3090 131° Southeast 484 557 37,000  Level FlightAware
01:44AM 4.7580 -74.2350 131° Southeast 484 557 37,000  Level FlightAware
01:45AM 4.7010 -74.1690 131° Southeast 484 557 37,000  Level FlightAware
01:46AM 4.6360 -74.0950 131° Southeast 484 557 37,000  Level FlightAware
01:46AM 4.5780 -74.0290 131° Southeast 484 557 37,000  Level FlightAware
01:47AM 4.5100 -73.9510 131° Southeast 484 557 37,000  Level FlightAware
01:48AM 4.4510 -73.8820 131° Southeast 484 557 37,000  Level FlightAware
01:48AM 4.3850 -73.8070 131° Southeast 484 557 37,000  Level FlightAware
01:49AM 4.3320 -73.7470 132° Southeast 484 557 37,000  Level FlightAware
01:50AM 4.2730 -73.6790 131° Southeast 484 557 37,000  Level FlightAware
01:50AM 4.2030 -73.5990 131° Southeast 484 557 37,000  Level FlightAware
01:51AM 4.1370 -73.5230 131° Southeast 485 558 37,000  Level FlightAware
01:52AM 4.0780 -73.4560 131° Southeast 484 557 37,000  Level FlightAware
01:53AM 4.0140 -73.3830 131° Southeast 484 557 37,000  Level FlightAware
01:53AM 3.9540 -73.3140 131° Southeast 482 555 37,000  Level FlightAware
01:54AM 3.8900 -73.2410 131° Southeast 482 555 37,000  Level FlightAware
01:55AM 3.8270 -73.1700 132° Southeast 482 555 37,000  Level FlightAware
01:55AM 3.7740 -73.1080 131° Southeast 482 555 37,000  Level FlightAware
01:56AM 3.7300 -73.0580 131° Southeast 482 555 37,000  Level FlightAware
01:57AM 3.6760 -72.9950 131° Southeast 482 555 37,000  Level FlightAware
01:57AM 3.6160 -72.9260 131° Southeast 482 555 37,000  Level FlightAware
01:58AM 3.5710 -72.8750 131° Southeast 482 555 37,000  Level FlightAware
01:59AM 3.5250 -72.8220 131° Southeast 482 555 37,000  Level FlightAware
02:00AM 3.4640 -72.7510 131° Southeast 482 555 37,000  Level FlightAware
02:00AM 3.4080 -72.6870 131° Southeast 482 555 37,000  Level FlightAware
02:01AM 3.3640 -72.6350 130° Southeast 482 555 37,000  Level FlightAware
02:02AM 3.3040 -72.5670 131° Southeast 482 555 37,000  Level FlightAware
02:02AM 3.2580 -72.5130 130° Southeast 482 555 37,000  Level FlightAware
02:03AM 3.1980 -72.4450 131° Southeast 482 555 37,000  Level FlightAware
02:04AM 3.1550 -72.3950 131° Southeast 482 555 37,000  Level FlightAware
02:04AM 3.0940 -72.3240 131° Southeast 482 555 37,000  Level FlightAware
02:07AM 2.8961 -72.1445 138° Southeast  Level Estimated
02:08AM 2.7988 -72.0562 138° Southeast  Level Estimated
02:09AM 2.7014 -71.9680 138° Southeast  Level Estimated
02:10AM 2.6041 -71.8798 138° Southeast  Level Estimated
02:11AM 2.5067 -71.7916 138° Southeast  Level Estimated
02:12AM 2.4094 -71.7034 138° Southeast  Level Estimated
02:13AM 2.3120 -71.6152 138° Southeast  Level Estimated
02:14AM 2.2146 -71.5270 138° Southeast  Level Estimated
02:15AM 2.1173 -71.4388 138° Southeast  Level Estimated
02:16AM 2.0199 -71.3507 138° Southeast  Level Estimated
02:17AM 1.9225 -71.2625 138° Southeast  Level Estimated
02:18AM 1.8251 -71.1744 138° Southeast  Level Estimated
02:19AM 1.7277 -71.0863 138° Southeast  Level Estimated
02:20AM 1.6303 -70.9982 138° Southeast  Level Estimated
02:21AM 1.5329 -70.9101 138° Southeast  Level Estimated
02:22AM 1.4355 -70.8220 138° Southeast  Level Estimated
02:23AM 1.3381 -70.7339 138° Southeast  Level Estimated
02:24AM 1.2407 -70.6458 138° Southeast  Level Estimated
02:25AM 1.1433 -70.5577 138° Southeast  Level Estimated
02:26AM 1.0459 -70.4697 138° Southeast  Level Estimated
02:27AM 0.9484 -70.3816 138° Southeast  Level Estimated
02:28AM 0.8510 -70.2935 138° Southeast  Level Estimated
02:29AM 0.7536 -70.2055 138° Southeast  Level Estimated
02:30AM 0.6562 -70.1174 138° Southeast  Level Estimated
02:31AM 0.5587 -70.0294 138° Southeast  Level Estimated
02:32AM 0.4613 -69.9413 138° Southeast  Level Estimated
02:33AM 0.3639 -69.8533 138° Southeast  Level Estimated
02:34AM 0.2664 -69.7653 138° Southeast  Level Estimated
02:35AM 0.1690 -69.6772 138° Southeast  Level Estimated
02:36AM 0.0716 -69.5892 138° Southeast  Level Estimated
02:37AM -0.0258 -69.5011 138° Southeast  Level Estimated
02:38AM -0.1233 -69.4131 138° Southeast  Level Estimated
02:39AM -0.2207 -69.3251 138° Southeast  Level Estimated
02:40AM -0.3181 -69.2370 138° Southeast  Level Estimated
02:41AM -0.4156 -69.1490 138° Southeast  Level Estimated
02:42AM -0.5130 -69.0609 138° Southeast  Level Estimated
02:43AM -0.6104 -68.9729 138° Southeast  Level Estimated
02:44AM -0.7079 -68.8848 138° Southeast  Level Estimated
02:45AM -0.8053 -68.7968 138° Southeast  Level Estimated
02:46AM -0.9027 -68.7087 138° Southeast  Level Estimated
02:47AM -1.0001 -68.6207 138° Southeast  Level Estimated
02:48AM -1.0976 -68.5326 138° Southeast  Level Estimated
02:49AM -1.1950 -68.4445 138° Southeast  Level Estimated
02:50AM -1.2924 -68.3564 138° Southeast  Level Estimated
02:51AM -1.3898 -68.2683 138° Southeast  Level Estimated
02:52AM -1.4872 -68.1803 138° Southeast  Level Estimated
02:53AM -1.5846 -68.0922 138° Southeast  Level Estimated
02:54AM -1.6820 -68.0041 138° Southeast  Level Estimated
02:55AM -1.7794 -67.9159 138° Southeast  Level Estimated
02:56AM -1.8768 -67.8278 138° Southeast  Level Estimated
02:57AM -1.9742 -67.7397 138° Southeast  Level Estimated
02:58AM -2.0716 -67.6515 138° Southeast  Level Estimated
02:59AM -2.1689 -67.5633 138° Southeast  Level Estimated
03:00AM -2.2663 -67.4752 138° Southeast  Level Estimated
03:01AM -2.3637 -67.3870 138° Southeast  Level Estimated
03:02AM -2.4610 -67.2988 138° Southeast  Level Estimated
03:03AM -2.5584 -67.2106 138° Southeast  Level Estimated
03:04AM -2.6558 -67.1224 138° Southeast  Level Estimated
03:05AM -2.7531 -67.0341 138° Southeast  Level Estimated
03:06AM -2.8504 -66.9459 138° Southeast  Level Estimated
03:07AM -2.9478 -66.8576 138° Southeast  Level Estimated
03:08AM -3.0451 -66.7694 138° Southeast  Level Estimated
03:09AM -3.1424 -66.6811 138° Southeast  Level Estimated
03:10AM -3.2397 -66.5928 138° Southeast  Level Estimated
03:11AM -3.3370 -66.5044 138° Southeast  Level Estimated
03:12AM -3.4343 -66.4161 138° Southeast  Level Estimated
03:13AM -3.5316 -66.3277 138° Southeast  Level Estimated
03:14AM -3.6289 -66.2393 138° Southeast  Level Estimated
03:15AM -3.7261 -66.1509 138° Southeast  Level Estimated
03:16AM -3.8234 -66.0625 138° Southeast  Level Estimated
03:17AM -3.9206 -65.9741 138° Southeast  Level Estimated
03:18AM -4.0179 -65.8856 138° Southeast  Level Estimated
03:19AM -4.1149 -65.7973 138° Southeast  Level Estimated
03:20AM -4.2120 -65.7089 138° Southeast  Level Estimated
03:21AM -4.3090 -65.6206 138° Southeast  Level Estimated
03:22AM -4.4061 -65.5322 138° Southeast  Level Estimated
03:23AM -4.5031 -65.4437 138° Southeast  Level Estimated
03:24AM -4.6001 -65.3553 138° Southeast  Level Estimated
03:25AM -4.6971 -65.2669 138° Southeast  Level Estimated
03:26AM -4.7941 -65.1784 138° Southeast  Level Estimated
03:27AM -4.8911 -65.0899 138° Southeast  Level Estimated
03:28AM -4.9880 -65.0013 138° Southeast  Level Estimated
03:29AM -5.0850 -64.9127 138° Southeast  Level Estimated
03:30AM -5.1819 -64.8242 138° Southeast  Level Estimated
03:31AM -5.2788 -64.7355 138° Southeast  Level Estimated
03:32AM -5.3758 -64.6469 138° Southeast  Level Estimated
03:33AM -5.4727 -64.5582 138° Southeast  Level Estimated
03:34AM -5.5696 -64.4695 138° Southeast  Level Estimated
03:35AM -5.6664 -64.3808 138° Southeast  Level Estimated
03:36AM -5.7633 -64.2920 138° Southeast  Level Estimated
03:37AM -5.8601 -64.2032 138° Southeast  Level Estimated
03:38AM -5.9570 -64.1144 138° Southeast  Level Estimated
03:39AM -6.0538 -64.0255 138° Southeast  Level Estimated
03:40AM -6.1506 -63.9366 138° Southeast  Level Estimated
03:41AM -6.2474 -63.8477 138° Southeast  Level Estimated
03:42AM -6.3442 -63.7588 138° Southeast  Level Estimated
03:43AM -6.4409 -63.6698 138° Southeast  Level Estimated
03:44AM -6.5377 -63.5808 138° Southeast  Level Estimated
03:45AM -6.6344 -63.4917 138° Southeast  Level Estimated
03:46AM -6.7311 -63.4026 138° Southeast  Level Estimated
03:47AM -6.8277 -63.3137 138° Southeast  Level Estimated
03:48AM -6.9242 -63.2247 138° Southeast  Level Estimated
03:49AM -7.0207 -63.1356 138° Southeast  Level Estimated
03:50AM -7.1171 -63.0465 138° Southeast  Level Estimated
03:51AM -7.2136 -62.9574 137° Southeast  Level Estimated
03:52AM -7.3100 -62.8683 137° Southeast  Level Estimated
03:53AM -7.4065 -62.7791 137° Southeast  Level Estimated
03:54AM -7.5029 -62.6898 137° Southeast  Level Estimated
03:55AM -7.5993 -62.6006 137° Southeast  Level Estimated
03:56AM -7.6956 -62.5113 137° Southeast  Level Estimated
03:57AM -7.7920 -62.4219 137° Southeast  Level Estimated
03:58AM -7.8883 -62.3325 137° Southeast  Level Estimated
03:59AM -7.9847 -62.2431 137° Southeast  Level Estimated
04:00AM -8.0809 -62.1536 137° Southeast  Level Estimated
04:01AM -8.1774 -62.0639 137° Southeast  Level Estimated
04:02AM -8.2738 -61.9742 137° Southeast  Level Estimated
04:03AM -8.3702 -61.8845 137° Southeast  Level Estimated
04:04AM -8.4666 -61.7947 137° Southeast  Level Estimated
04:05AM -8.5630 -61.7048 137° Southeast  Level Estimated
04:06AM -8.6594 -61.6149 137° Southeast  Level Estimated
04:07AM -8.7557 -61.5250 137° Southeast  Level Estimated
04:08AM -8.8520 -61.4350 137° Southeast  Level Estimated
04:09AM -8.9483 -61.3449 137° Southeast  Level Estimated
04:10AM -9.0445 -61.2548 137° Southeast  Level Estimated
04:11AM -9.1408 -61.1647 137° Southeast  Level Estimated
04:12AM -9.2370 -61.0745 137° Southeast  Level Estimated
04:13AM -9.3332 -60.9843 137° Southeast  Level Estimated
04:14AM -9.4293 -60.8940 137° Southeast  Level Estimated
04:15AM -9.5255 -60.8037 137° Southeast  Level Estimated
04:16AM -9.6216 -60.7133 137° Southeast  Level Estimated
04:17AM -9.7177 -60.6229 137° Southeast  Level Estimated
04:18AM -9.8138 -60.5324 137° Southeast  Level Estimated
04:19AM -9.9098 -60.4418 137° Southeast  Level Estimated
04:20AM -10.0059 -60.3513 137° Southeast  Level Estimated
04:21AM -10.1019 -60.2606 137° Southeast  Level Estimated
04:22AM -10.1979 -60.1699 137° Southeast  Level Estimated
04:23AM -10.2940 -60.0790 137° Southeast  Level Estimated
04:24AM -10.3901 -59.9880 137° Southeast  Level Estimated
04:25AM -10.4861 -59.8970 137° Southeast  Level Estimated
04:26AM -10.5822 -59.8059 137° Southeast  Level Estimated
04:27AM -10.6782 -59.7148 137° Southeast  Level Estimated
04:28AM -10.7742 -59.6236 137° Southeast  Level Estimated
04:29AM -10.8702 -59.5323 137° Southeast  Level Estimated
04:30AM -10.9661 -59.4410 137° Southeast  Level Estimated
04:31AM -11.0620 -59.3496 137° Southeast  Level Estimated
04:32AM -11.1579 -59.2582 137° Southeast  Level Estimated
04:33AM -11.2538 -59.1667 137° Southeast  Level Estimated
04:34AM -11.3494 -59.0753 137° Southeast  Level Estimated
04:35AM -11.4451 -58.9839 137° Southeast  Level Estimated
04:36AM -11.5407 -58.8924 137° Southeast  Level Estimated
04:37AM -11.6362 -58.8008 137° Southeast  Level Estimated
04:38AM -11.7318 -58.7091 137° Southeast  Level Estimated
04:39AM -11.8273 -58.6174 137° Southeast  Level Estimated
04:40AM -11.9228 -58.5257 137° Southeast  Level Estimated
04:41AM -12.0183 -58.4338 137° Southeast  Level Estimated
04:42AM -12.1137 -58.3419 137° Southeast  Level Estimated
04:43AM -12.2091 -58.2500 137° Southeast  Level Estimated
04:44AM -12.3045 -58.1579 137° Southeast  Level Estimated
04:45AM -12.3998 -58.0658 137° Southeast  Level Estimated
04:46AM -12.4951 -57.9737 137° Southeast  Level Estimated
04:47AM -12.5904 -57.8814 137° Southeast  Level Estimated
04:48AM -12.6856 -57.7891 137° Southeast  Level Estimated
04:49AM -12.7810 -57.6966 137° Southeast  Level Estimated
04:50AM -12.8764 -57.6040 137° Southeast  Level Estimated
04:51AM -12.9717 -57.5113 137° Southeast  Level Estimated
04:52AM -13.0670 -57.4186 137° Southeast  Level Estimated
04:53AM -13.1622 -57.3258 137° Southeast  Level Estimated
04:54AM -13.2574 -57.2329 136° Southeast  Level Estimated
04:55AM -13.3526 -57.1399 136° Southeast  Level Estimated
04:56AM -13.4478 -57.0469 136° Southeast  Level Estimated
04:57AM -13.5429 -56.9538 136° Southeast  Level Estimated
04:58AM -13.6379 -56.8606 136° Southeast  Level Estimated
04:59AM -13.7330 -56.7673 136° Southeast  Level Estimated
05:00AM -13.8282 -56.6738 136° Southeast  Level Estimated
05:01AM -13.9233 -56.5803 136° Southeast  Level Estimated
05:02AM -14.0184 -56.4866 136° Southeast  Level Estimated
05:03AM -14.1135 -56.3929 136° Southeast  Level Estimated
05:04AM -14.2085 -56.2991 136° Southeast  Level Estimated
05:05AM -14.3035 -56.2052 136° Southeast  Level Estimated
05:06AM -14.3985 -56.1112 136° Southeast  Level Estimated
05:07AM -14.4934 -56.0172 136° Southeast  Level Estimated
05:08AM -14.5883 -55.9230 136° Southeast  Level Estimated
05:09AM -14.6831 -55.8288 136° Southeast  Level Estimated
05:10AM -14.7780 -55.7345 136° Southeast  Level Estimated
05:11AM -14.8727 -55.6402 136° Southeast  Level Estimated
05:12AM -14.9675 -55.5457 136° Southeast  Level Estimated
05:13AM -15.0621 -55.4512 136° Southeast  Level Estimated
05:14AM -15.1568 -55.3565 136° Southeast  Level Estimated
05:15AM -15.2514 -55.2618 136° Southeast  Level Estimated
05:16AM -15.3460 -55.1670 136° Southeast  Level Estimated
05:17AM -15.4405 -55.0722 136° Southeast  Level Estimated
05:18AM -15.5350 -54.9772 136° Southeast  Level Estimated
05:19AM -15.6295 -54.8822 136° Southeast  Level Estimated
05:20AM -15.7239 -54.7870 136° Southeast  Level Estimated
05:21AM -15.8183 -54.6918 136° Southeast  Level Estimated
05:22AM -15.9126 -54.5965 136° Southeast  Level Estimated
05:23AM -16.0069 -54.5011 136° Southeast  Level Estimated
05:24AM -16.1011 -54.4056 136° Southeast  Level Estimated
05:25AM -16.1952 -54.3101 136° Southeast  Level Estimated
05:26AM -16.2892 -54.2146 136° Southeast  Level Estimated
05:27AM -16.3831 -54.1190 136° Southeast  Level Estimated
05:28AM -16.4770 -54.0233 136° Southeast  Level Estimated
05:29AM -16.5709 -53.9276 136° Southeast  Level Estimated
05:30AM -16.6647 -53.8317 136° Southeast  Level Estimated
05:31AM -16.7585 -53.7357 136° Southeast  Level Estimated
05:32AM -16.8522 -53.6396 136° Southeast  Level Estimated
05:33AM -16.9459 -53.5435 136° Southeast  Level Estimated
05:34AM -17.0396 -53.4472 136° Southeast  Level Estimated
05:35AM -17.1332 -53.3508 135° Southeast  Level Estimated
05:36AM -17.2267 -53.2544 135° Southeast  Level Estimated
05:37AM -17.3202 -53.1578 135° Southeast  Level Estimated
05:38AM -17.4137 -53.0612 135° Southeast  Level Estimated
05:39AM -17.5071 -52.9645 135° Southeast  Level Estimated
05:40AM -17.6005 -52.8676 135° Southeast  Level Estimated
05:41AM -17.6938 -52.7706 135° Southeast  Level Estimated
05:42AM -17.7871 -52.6736 135° Southeast  Level Estimated
05:43AM -17.8803 -52.5765 135° Southeast  Level Estimated
05:43AM -18.8030 -50.8850 135° Southeast 525 604 39,000  Level FlightAware
05:44AM -17.9734 -52.4792 135° Southeast  Level Estimated
05:44AM -18.8690 -50.8130 134° Southeast 525 604 39,000  Level FlightAware
05:44AM -18.9470 -50.7290 134° Southeast 526 605 39,000  Level FlightAware
05:45AM -19.0180 -50.6510 134° Southeast 527 606 39,000  Level FlightAware
05:46AM -19.0890 -50.5730 134° Southeast 527 606 39,000  Level FlightAware
05:47AM -19.1580 -50.4980 134° Southeast 528 608 39,000  Level FlightAware
05:47AM -19.2340 -50.4150 134° Southeast 528 608 39,000  Level FlightAware
05:48AM -19.3040 -50.3380 134° Southeast 529 609 39,000  Level FlightAware
05:48AM -19.3530 -50.2850 134° Southeast 529 609 39,000  Level FlightAware
05:49AM -19.4200 -50.2110 134° Southeast 527 606 39,000  Level FlightAware
05:50AM -19.4850 -50.1390 134° Southeast 528 608 39,000  Level FlightAware
05:51AM -19.6130 -49.9980 134° Southeast 528 608 39,000  Level FlightAware
05:52AM -19.6710 -49.9350 134° Southeast 528 608 39,000  Level FlightAware
05:52AM -19.7400 -49.8600 134° Southeast 528 608 39,000  Level FlightAware
05:53AM -19.8030 -49.7900 134° Southeast 528 608 39,000  Level FlightAware
05:54AM -19.8820 -49.7050 135° Southeast 531 611 39,000  Level FlightAware
05:54AM -19.9510 -49.6290 134° Southeast 531 611 39,000  Level FlightAware
05:55AM -20.0500 -49.5200 134° Southeast 533 613 39,000  Level FlightAware
05:56AM -20.1180 -49.4450 134° Southeast 533 613 39,000  Level FlightAware
05:57AM -20.1950 -49.3610 134° Southeast 535 616 39,000  Level FlightAware
05:57AM -20.2630 -49.2860 134° Southeast 536 617 39,000  Level FlightAware
05:58AM -20.3390 -49.2010 134° Southeast 537 618 39,000  Level FlightAware
05:59AM -20.4080 -49.1250 134° Southeast 537 618 39,000  Level FlightAware
05:59AM -20.4810 -49.0440 134° Southeast 538 619 39,000  Level FlightAware
06:00AM -20.5460 -48.9720 134° Southeast 538 619 39,000  Level FlightAware
06:01AM -20.6290 -48.8800 134° Southeast 538 619 39,000  Level FlightAware
06:02AM -20.6980 -48.8030 134° Southeast 538 619 39,000  Level FlightAware
06:02AM -20.7740 -48.7180 134° Southeast 539 620 39,000  Level FlightAware
06:03AM -20.8460 -48.6370 134° Southeast 540 621 39,000  Level FlightAware
06:04AM -20.9150 -48.5590 133° Southeast 541 623 39,000  Level FlightAware
06:04AM -20.9870 -48.4790 134° Southeast 541 623 39,000  Level FlightAware
06:05AM -21.0520 -48.4050 133° Southeast 541 623 39,000  Level FlightAware
06:06AM -21.1310 -48.3160 134° Southeast 541 623 39,000  Level FlightAware
06:07AM -21.2110 -48.2260 134° Southeast 538 619 39,000  Level FlightAware
06:07AM -21.2800 -48.1480 134° Southeast 528 608 39,000  Level FlightAware
06:08AM -21.3450 -48.0740 133° Southeast 525 604 39,000  Level FlightAware
06:09AM -21.4190 -47.9900 133° Southeast 524 603 39,000  Level FlightAware
06:09AM -21.4830 -47.9180 134° Southeast 522 601 39,000  Level FlightAware
06:10AM -21.5590 -47.8320 134° Southeast 522 601 39,000 -60 Level FlightAware
06:11AM -21.6720 -47.7030 133° Southeast 519 597 38,900 -1,140 Descending FlightAware
06:12AM -21.7420 -47.6230 133° Southeast 528 608 37,000 -2,700 Descending FlightAware
06:13AM -21.8160 -47.5380 133° Southeast 532 612 35,100 -2,580 Descending FlightAware
06:13AM -21.8830 -47.4620 134° Southeast 529 609 33,500 -2,160 Descending FlightAware
06:14AM -21.9560 -47.3790 133° Southeast 513 590 32,100 -2,340 Descending FlightAware
06:15AM -22.0350 -47.3240 147° Southeast 496 571 30,300 -2,760 Descending FlightAware
06:15AM -22.1260 -47.3050 169° South 481 554 28,400 -2,340 Descending FlightAware
06:16AM -22.2140 -47.3260 192° South 452 520 27,100 -1,560 Descending FlightAware
06:17AM -22.2810 -47.3760 215° Southwest 422 486 26,300 -1,020 Descending FlightAware
06:17AM -22.3510 -47.4300 216° Southwest 397 457 25,700 -900 Descending FlightAware
06:18AM -22.3930 -47.4410 194° South 392 451 25,300 -780 Descending FlightAware
06:18AM -22.4430 -47.4280 166° South 384 442 25,000 -420 Descending FlightAware
06:19AM -22.4650 -47.4100 143° Southeast 382 440 25,000  Level FlightAware
06:19AM -22.4930 -47.3620 122° Southeast 386 444 25,000  Level FlightAware
06:20AM -22.5160 -47.2880 109° East 387 445 25,000 -840 Level FlightAware
06:20AM -22.5400 -47.2130 109° East 385 443 23,900 -1,620 Descending FlightAware
06:21AM -22.5690 -47.1650 123° Southeast 371 427 23,100 -1,680 Descending FlightAware
06:22AM -22.6440 -47.1210 152° Southeast 364 419 21,700 -1,740 Descending FlightAware
06:23AM -22.7150 -47.0850 155° Southeast 355 409 20,300 -2,400 Descending FlightAware
06:23AM -22.7740 -47.0540 154° Southeast 344 396 18,200 -3,000 Descending FlightAware
06:24AM -22.8300 -47.0240 154° Southeast 329 379 16,300 -2,940 Descending FlightAware
06:25AM -22.8910 -46.9910 154° Southeast 320 368 14,000 -2,760 Descending FlightAware
06:26AM -22.9750 -46.9460 154° Southeast 310 357 11,200 -1,920 Descending FlightAware
06:26AM -23.0320 -46.9150 153° Southeast 292 336 10,600 -660 Descending FlightAware
06:27AM -23.0810 -46.8890 154° Southeast 285 328 10,300 -540 Descending FlightAware
06:28AM -23.1300 -46.8660 157° South 280 322 9,900 -900 Descending FlightAware
06:28AM -23.1670 -46.8500 158° South 276 318 9,300 -1,260 Descending FlightAware
06:29AM -23.2040 -46.8340 158° South 274 315 8,700 -1,320 Descending FlightAware
06:29AM -23.2340 -46.8210 158° South 280 322 8,100 -1,200 Descending FlightAware
06:30AM -23.2590 -46.8110 160° South 277 319 7,800 -720 Descending FlightAware
06:30AM -23.3070 -46.7900 158° South 254 292 7,400 -480 Descending FlightAware
06:31AM -23.3360 -46.7780 159° South 236 272 7,300 -540 Descending FlightAware
06:31AM -23.3640 -46.7660 159° South 225 259 6,900 -900 Descending FlightAware
06:32AM -23.3880 -46.7480 145° Southeast 224 258 6,500 -1,020 Descending FlightAware
06:32AM -23.4100 -46.7280 140° Southeast 219 252 6,000 -1,020 Descending FlightAware
06:33AM -23.4300 -46.7090 139° Southeast 211 243 5,600 -840 Descending FlightAware
06:33AM -23.4480 -46.6900 136° Southeast 200 230 5,300 -780 Descending FlightAware
06:34AM -23.4600 -46.6640 117° Southeast 181 208 4,900 -660 Descending FlightAware
06:34AM -23.4690 -46.6430 115° Southeast 162 186 4,700 -480 Descending FlightAware
06:34AM -23.4750 -46.6250 110° East 159 183 4,500 -360 Descending FlightAware
06:35AM -23.4700 -46.6030 76° East 161 185 4,400 -540 Descending FlightAware
06:35AM -23.4660 -46.5870 75° East 165 190 4,100 -900 Descending FlightAware
06:36AM -23.4600 -46.5650 73° East 157 181 3,700 -900 Descending FlightAware
06:36AM -23.4540 -46.5450 72° East 147 169 3,300 -780 Descending FlightAware
06:37AM -23.4490 -46.5260 74° East 145 167 3,000 -720 Descending FlightAware
06:37AM -23.4440 -46.5080 73° East 145 167 2,700 -780 Descending FlightAware
06:38AM -23.4370 -46.4820 74° East 143 165 2,200 -840 Descending FlightAware
06:38AM -23.4350 -46.4730 76° East 105 121 -8,280 Descending FlightAware